Time;durP1;ratioP1;P1;durP2;ratioP2;P2;SDS_P1;SDS_P2;PMS_P1;PMS_P2;Temp;Humidity;BMP_temperature;BMP_pressure;BME280_temperature;BME280_humidity;BME280_pressure;Samples;Min_cycle;Max_cycle;Signal;HPM_P1;HPM_P2
2020/12/06 00:00:33;;;;;;;20.63;14.33;;;;;;;;;;5052302;28;20211;-79
2020/12/06 00:03:00;;;;;;;20.37;15.07;;;;;;;;;;5042543;28;20209;-79
2020/12/06 00:05:27;;;;;;;18.57;14.07;;;;;;;;;;5051841;28;20862;-79
2020/12/06 00:07:54;;;;;;;21.97;13.77;;;;;;;;;;5050913;28;20608;-79
2020/12/06 00:10:21;;;;;;;19.27;14.13;;;;;;;;;;5051575;28;20202;-79
2020/12/06 00:12:49;;;;;;;20.47;14.00;;;;;;;;;;5051543;28;20621;-79
2020/12/06 00:15:16;;;;;;;15.53;12.73;;;;;;;;;;5052026;28;20610;-79
2020/12/06 00:17:43;;;;;;;24.80;17.13;;;;;;;;;;5044561;28;20205;-79
2020/12/06 00:20:12;;;;;;;23.03;15.70;;;;;;;;;;5031718;28;20257;-79
2020/12/06 00:22:39;;;;;;;25.70;18.93;;;;;;;;;;5046977;28;20196;-79
2020/12/06 00:25:06;;;;;;;25.60;18.73;;;;;;;;;;5035077;28;20200;-78
2020/12/06 00:27:34;;;;;;;21.73;16.50;;;;;;;;;;5058949;28;20264;-79
2020/12/06 00:30:02;;;;;;;17.30;12.90;;;;;;;;;;5062145;28;20267;-79
2020/12/06 00:32:29;;;;;;;15.77;11.90;;;;;;;;;;5071956;28;20229;-79
2020/12/06 00:34:56;;;;;;;17.90;11.80;;;;;;;;;;5071606;28;20225;-79
2020/12/06 00:37:23;;;;;;;19.00;11.53;;;;;;;;;;5071452;28;20735;-79
2020/12/06 00:39:50;;;;;;;15.80;11.33;;;;;;;;;;5071422;28;20207;-79
2020/12/06 00:42:17;;;;;;;16.87;11.73;;;;;;;;;;5071142;28;20674;-79
2020/12/06 00:44:44;;;;;;;13.87;11.47;;;;;;;;;;5071754;28;20202;-79
2020/12/06 00:47:12;;;;;;;14.57;10.57;;;;;;;;;;5070960;28;20196;-79
2020/12/06 00:49:39;;;;;;;15.93;11.23;;;;;;;;;;5071036;28;20620;-80
2020/12/06 00:52:06;;;;;;;16.03;11.23;;;;;;;;;;5071567;28;20238;-80
2020/12/06 00:54:34;;;;;;;13.60;11.40;;;;;;;;;;5075137;28;20210;-80
2020/12/06 00:57:01;;;;;;;16.00;11.23;;;;;;;;;;5074681;28;20577;-79
2020/12/06 00:59:28;;;;;;;15.60;10.80;;;;;;;;;;5074562;28;20195;-80
2020/12/06 01:01:55;;;;;;;16.27;11.30;;;;;;;;;;5074827;28;20206;-79
2020/12/06 01:04:23;;;;;;;15.87;11.40;;;;;;;;;;5064216;28;20284;-79
2020/12/06 01:06:51;;;;;;;14.40;11.17;;;;;;;;;;5075134;28;20261;-79
2020/12/06 01:09:18;;;;;;;14.47;10.70;;;;;;;;;;5074114;28;20260;-79
2020/12/06 01:11:48;;;;;;;17.00;10.43;;;;;;;;;;5074609;28;20201;-79
2020/12/06 01:14:15;;;;;;;13.70;9.87;;;;;;;;;;5060770;28;20214;-79
2020/12/06 01:16:43;;;;;;;15.33;10.57;;;;;;;;;;5066944;28;20233;-79
2020/12/06 01:19:10;;;;;;;16.70;10.87;;;;;;;;;;5054158;28;20632;-79
2020/12/06 01:21:38;;;;;;;15.07;10.23;;;;;;;;;;5054482;28;20668;-79
2020/12/06 01:24:05;;;;;;;16.57;9.83;;;;;;;;;;5054519;28;20257;-79
2020/12/06 01:26:32;;;;;;;18.73;10.37;;;;;;;;;;5068894;28;20226;-79
2020/12/06 01:28:59;;;;;;;13.80;10.00;;;;;;;;;;5074196;28;20234;-79
2020/12/06 01:31:26;;;;;;;14.90;10.20;;;;;;;;;;5061805;28;20218;-79
2020/12/06 01:33:53;;;;;;;14.33;10.47;;;;;;;;;;5054606;28;20219;-79
2020/12/06 01:36:20;;;;;;;14.43;9.57;;;;;;;;;;5054141;28;20207;-79
2020/12/06 01:38:48;;;;;;;13.07;9.97;;;;;;;;;;5054252;28;20628;-79
2020/12/06 01:41:19;;;;;;;14.80;11.30;;;;;;;;;;5070762;28;20202;-79
2020/12/06 01:43:53;;;;;;;14.97;11.00;;;;;;;;;;5074579;28;20285;-79
2020/12/06 01:46:20;;;;;;;15.53;11.40;;;;;;;;;;5073625;28;20718;-79
2020/12/06 01:48:47;;;;;;;13.87;11.10;;;;;;;;;;5073056;28;20577;-79
2020/12/06 01:51:16;;;;;;;15.80;11.37;;;;;;;;;;5073917;28;20205;-79
2020/12/06 01:53:43;;;;;;;15.90;11.70;;;;;;;;;;5063518;28;20270;-79
2020/12/06 01:56:11;;;;;;;16.90;12.50;;;;;;;;;;5068695;28;20352;-79
2020/12/06 01:58:38;;;;;;;19.63;13.13;;;;;;;;;;5073870;28;20612;-79
2020/12/06 02:01:05;;;;;;;22.87;14.17;;;;;;;;;;5080226;28;20646;-79
2020/12/06 02:03:32;;;;;;;19.57;13.37;;;;;;;;;;5093014;28;20197;-79
2020/12/06 02:05:59;;;;;;;18.77;13.80;;;;;;;;;;5093892;28;20292;-79
2020/12/06 02:08:26;;;;;;;20.83;13.47;;;;;;;;;;5067754;28;20248;-79
2020/12/06 02:10:53;;;;;;;19.60;13.70;;;;;;;;;;5053883;28;20252;-79
2020/12/06 02:13:22;;;;;;;20.63;12.63;;;;;;;;;;5063827;28;20347;-79
2020/12/06 02:15:49;;;;;;;16.37;12.33;;;;;;;;;;5073247;28;20243;-79
2020/12/06 02:18:16;;;;;;;16.47;12.17;;;;;;;;;;5073304;28;20249;-79
2020/12/06 02:20:45;;;;;;;17.80;12.73;;;;;;;;;;5073281;28;20979;-79
2020/12/06 02:23:12;;;;;;;15.47;12.13;;;;;;;;;;5073381;28;20608;-79
2020/12/06 02:25:40;;;;;;;16.20;11.57;;;;;;;;;;5072954;28;20195;-79
2020/12/06 02:28:08;;;;;;;15.27;12.30;;;;;;;;;;5072945;28;20234;-79
2020/12/06 02:30:35;;;;;;;15.37;12.00;;;;;;;;;;5072455;28;20564;-79
2020/12/06 02:33:04;;;;;;;18.13;12.40;;;;;;;;;;5060154;28;20219;-79
2020/12/06 02:35:32;;;;;;;18.40;11.57;;;;;;;;;;5072957;28;20206;-79
2020/12/06 02:38:00;;;;;;;17.73;12.43;;;;;;;;;;5074072;28;20206;-79
2020/12/06 02:40:27;;;;;;;16.20;11.77;;;;;;;;;;5052802;28;20230;-79
2020/12/06 02:42:54;;;;;;;14.27;11.67;;;;;;;;;;5053178;28;20280;-79
2020/12/06 02:45:22;;;;;;;15.73;11.83;;;;;;;;;;5053101;28;20224;-79
2020/12/06 02:47:49;;;;;;;17.80;12.20;;;;;;;;;;5052433;28;20202;-79
2020/12/06 02:50:16;;;;;;;15.27;11.63;;;;;;;;;;5053311;28;20258;-79
2020/12/06 02:52:44;;;;;;;17.43;11.73;;;;;;;;;;5052933;28;20566;-79
2020/12/06 02:55:12;;;;;;;15.83;11.43;;;;;;;;;;5070728;28;20205;-79
2020/12/06 02:57:39;;;;;;;18.57;11.47;;;;;;;;;;5072384;28;20199;-79
2020/12/06 03:00:07;;;;;;;17.67;12.03;;;;;;;;;;5072849;28;20206;-78
2020/12/06 03:02:34;;;;;;;17.47;11.50;;;;;;;;;;5071924;28;20202;-79
2020/12/06 03:05:01;;;;;;;15.43;11.33;;;;;;;;;;5072481;28;20232;-79
2020/12/06 03:07:29;;;;;;;17.23;11.03;;;;;;;;;;5053299;28;20211;-79
2020/12/06 03:09:56;;;;;;;14.53;11.10;;;;;;;;;;5052995;28;20257;-79
2020/12/06 03:12:25;;;;;;;15.77;11.37;;;;;;;;;;5058961;28;20201;-79
2020/12/06 03:14:52;;;;;;;16.03;11.03;;;;;;;;;;5071666;28;20211;-79
2020/12/06 03:17:19;;;;;;;13.87;11.23;;;;;;;;;;5064750;28;20196;-79
2020/12/06 03:19:47;;;;;;;16.23;11.63;;;;;;;;;;5052561;28;20273;-79
2020/12/06 03:22:14;;;;;;;17.07;11.30;;;;;;;;;;5053793;28;20623;-79
2020/12/06 03:24:41;;;;;;;14.50;11.53;;;;;;;;;;5064247;28;20203;-79
2020/12/06 03:27:09;;;;;;;14.33;11.20;;;;;;;;;;5072236;28;20280;-79
2020/12/06 03:29:37;;;;;;;16.90;11.53;;;;;;;;;;5072173;28;20199;-80
2020/12/06 03:32:04;;;;;;;18.73;12.40;;;;;;;;;;5077687;28;20259;-79
2020/12/06 03:34:32;;;;;;;19.73;13.43;;;;;;;;;;5078596;28;20822;-79
2020/12/06 03:36:59;;;;;;;16.57;12.80;;;;;;;;;;5072152;28;20202;-79
2020/12/06 03:39:26;;;;;;;19.23;12.90;;;;;;;;;;5070614;28;20241;-79
2020/12/06 03:41:53;;;;;;;17.07;12.87;;;;;;;;;;5072121;28;20225;-79
2020/12/06 03:44:21;;;;;;;17.03;12.80;;;;;;;;;;5057962;28;20253;-79
2020/12/06 03:46:49;;;;;;;16.67;13.43;;;;;;;;;;5052333;28;20610;-79
2020/12/06 03:49:16;;;;;;;20.13;14.07;;;;;;;;;;5052245;28;20671;-79
2020/12/06 03:51:44;;;;;;;18.53;13.00;;;;;;;;;;5052571;28;20257;-79
2020/12/06 03:54:11;;;;;;;17.47;13.17;;;;;;;;;;5053251;28;20219;-79
2020/12/06 03:56:39;;;;;;;16.87;12.37;;;;;;;;;;5059421;28;20227;-78
2020/12/06 03:59:06;;;;;;;18.10;13.20;;;;;;;;;;5051722;28;20203;-79
2020/12/06 04:01:34;;;;;;;19.07;13.60;;;;;;;;;;5065175;28;20201;-79
2020/12/06 04:04:02;;;;;;;18.77;13.83;;;;;;;;;;5071832;28;20195;-79
2020/12/06 04:06:29;;;;;;;18.77;13.83;;;;;;;;;;5072423;28;20199;-79
2020/12/06 04:08:57;;;;;;;19.30;14.30;;;;;;;;;;5072127;28;20198;-79
2020/12/06 04:11:24;;;;;;;23.23;14.13;;;;;;;;;;5072353;28;20313;-79
2020/12/06 04:13:52;;;;;;;19.07;13.60;;;;;;;;;;5069156;28;20222;-79
2020/12/06 04:16:19;;;;;;;20.37;13.70;;;;;;;;;;5071889;28;20245;-79
2020/12/06 04:18:47;;;;;;;19.53;14.83;;;;;;;;;;5072264;28;20257;-79
2020/12/06 04:21:15;;;;;;;16.77;14.00;;;;;;;;;;5071994;28;20199;-79
2020/12/06 04:23:43;;;;;;;19.97;13.63;;;;;;;;;;5072115;28;20199;-79
2020/12/06 04:26:11;;;;;;;19.93;13.97;;;;;;;;;;5070634;28;20276;-79
2020/12/06 04:28:38;;;;;;;16.73;13.27;;;;;;;;;;5073884;28;20238;-79
2020/12/06 04:31:06;;;;;;;18.47;13.73;;;;;;;;;;5075427;28;20199;-79
2020/12/06 04:33:33;;;;;;;21.57;15.03;;;;;;;;;;5070706;28;20223;-79
2020/12/06 04:36:01;;;;;;;22.13;15.97;;;;;;;;;;5055349;28;20266;-79
2020/12/06 04:38:30;;;;;;;22.97;14.87;;;;;;;;;;5065877;28;20272;-79
2020/12/06 04:40:57;;;;;;;18.97;13.77;;;;;;;;;;5075668;28;20571;-79
2020/12/06 04:43:25;;;;;;;18.13;13.63;;;;;;;;;;5075280;28;20245;-79
2020/12/06 04:45:53;;;;;;;20.53;13.70;;;;;;;;;;5075363;28;20264;-79
2020/12/06 04:48:23;;;;;;;20.47;13.63;;;;;;;;;;5072163;28;20253;-79
2020/12/06 04:50:51;;;;;;;18.73;13.20;;;;;;;;;;5064351;28;20200;-79
2020/12/06 04:53:19;;;;;;;19.40;13.53;;;;;;;;;;5075201;28;20625;-78
2020/12/06 04:55:49;;;;;;;19.73;13.83;;;;;;;;;;5075163;28;20249;-79
2020/12/06 04:58:20;;;;;;;20.57;13.93;;;;;;;;;;5074122;28;20286;-79
2020/12/06 05:00:47;;;;;;;20.90;14.03;;;;;;;;;;5075258;28;20253;-78
2020/12/06 05:03:15;;;;;;;19.17;14.30;;;;;;;;;;5075250;28;20256;-79
2020/12/06 05:05:43;;;;;;;17.03;13.03;;;;;;;;;;5070435;28;20250;-79
2020/12/06 05:08:12;;;;;;;19.60;13.20;;;;;;;;;;5055188;28;20196;-78
2020/12/06 05:10:40;;;;;;;17.30;12.43;;;;;;;;;;5055710;28;20204;-78
2020/12/06 05:13:09;;;;;;;16.37;12.90;;;;;;;;;;5055505;28;20686;-78
2020/12/06 05:15:37;;;;;;;15.07;11.13;;;;;;;;;;5054667;28;20205;-78
2020/12/06 05:18:04;;;;;;;12.13;8.93;;;;;;;;;;5055621;28;20205;-79
2020/12/06 05:20:32;;;;;;;10.93;7.80;;;;;;;;;;5055112;28;20273;-79
2020/12/06 05:23:00;;;;;;;11.47;7.70;;;;;;;;;;5059107;28;20195;-79
2020/12/06 05:25:27;;;;;;;8.90;6.63;;;;;;;;;;5067981;28;20659;-79
2020/12/06 05:27:55;;;;;;;8.53;6.07;;;;;;;;;;5054516;28;20293;-79
2020/12/06 05:30:24;;;;;;;7.00;5.23;;;;;;;;;;5054599;28;20209;-79
2020/12/06 05:32:51;;;;;;;6.63;5.23;;;;;;;;;;5066686;28;20262;-79
2020/12/06 05:35:20;;;;;;;6.80;4.17;;;;;;;;;;5073534;28;20649;-79
2020/12/06 05:37:49;;;;;;;6.30;4.07;;;;;;;;;;5073625;28;20566;-79
2020/12/06 05:40:17;;;;;;;5.00;3.63;;;;;;;;;;5073903;28;20195;-79
2020/12/06 05:42:45;;;;;;;4.50;3.37;;;;;;;;;;5072733;28;20207;-79
2020/12/06 05:45:13;;;;;;;4.73;3.57;;;;;;;;;;5073726;28;20252;-79
2020/12/06 05:47:41;;;;;;;2.83;2.20;;;;;;;;;;5074503;28;20200;-79
2020/12/06 05:50:09;;;;;;;4.10;1.83;;;;;;;;;;5073936;28;20195;-79
2020/12/06 05:52:38;;;;;;;2.50;1.20;;;;;;;;;;5074284;28;20210;-80
2020/12/06 05:55:05;;;;;;;1.87;0.87;;;;;;;;;;5073695;28;20286;-79
2020/12/06 05:57:33;;;;;;;3.33;0.70;;;;;;;;;;5072851;28;20199;-79
2020/12/06 06:00:02;;;;;;;1.00;0.60;;;;;;;;;;5054146;28;20245;-79
2020/12/06 06:02:30;;;;;;;2.10;0.87;;;;;;;;;;5071041;28;20249;-79
2020/12/06 06:05:04;;;;;;;1.00;0.60;;;;;;;;;;5073955;28;20240;-79
2020/12/06 06:07:32;;;;;;;1.93;0.70;;;;;;;;;;5073199;28;20210;-79
2020/12/06 06:10:01;;;;;;;2.83;0.73;;;;;;;;;;5073329;28;20198;-79
2020/12/06 06:12:32;;;;;;;1.53;0.70;;;;;;;;;;5074180;28;20207;-79
2020/12/06 06:15:00;;;;;;;2.70;0.90;;;;;;;;;;5073499;28;20219;-79
2020/12/06 06:17:28;;;;;;;1.63;0.87;;;;;;;;;;5073606;28;20674;-79
2020/12/06 06:19:55;;;;;;;3.50;0.90;;;;;;;;;;5073490;28;20229;-79
2020/12/06 06:22:27;;;;;;;2.10;1.10;;;;;;;;;;5072975;28;20199;-79
2020/12/06 06:24:55;;;;;;;1.87;1.17;;;;;;;;;;5069799;28;20249;-79
2020/12/06 06:27:23;;;;;;;1.97;1.03;;;;;;;;;;5053271;28;20227;-79
2020/12/06 06:29:51;;;;;;;2.00;1.27;;;;;;;;;;5056108;28;20202;-79
2020/12/06 06:32:20;;;;;;;2.17;1.20;;;;;;;;;;5069174;28;20207;-79
2020/12/06 06:34:48;;;;;;;2.60;1.43;;;;;;;;;;5065440;28;20306;-79
2020/12/06 06:37:16;;;;;;;2.43;1.30;;;;;;;;;;5073344;28;20237;-79
2020/12/06 06:39:44;;;;;;;3.23;1.67;;;;;;;;;;5062853;28;20199;-79
2020/12/06 06:42:13;;;;;;;2.10;1.60;;;;;;;;;;5060516;28;20683;-79
2020/12/06 06:44:41;;;;;;;3.20;1.13;;;;;;;;;;5053316;28;20202;-79
2020/12/06 06:47:09;;;;;;;3.37;1.50;;;;;;;;;;5062409;28;20199;-79
2020/12/06 06:49:51;;;;;;;2.10;1.30;;;;;;;;;;5062124;28;20840;-79
2020/12/06 06:52:19;;;;;;;2.37;1.30;;;;;;;;;;5063093;28;20670;-78
2020/12/06 06:54:49;;;;;;;1.70;1.40;;;;;;;;;;5052788;28;20273;-79
2020/12/06 06:57:17;;;;;;;1.43;1.30;;;;;;;;;;5052781;28;20561;-79
2020/12/06 06:59:47;;;;;;;3.60;1.53;;;;;;;;;;5056052;28;20257;-79
2020/12/06 07:02:21;;;;;;;1.83;1.33;;;;;;;;;;5052646;28;20199;-79
2020/12/06 07:04:49;;;;;;;1.83;1.50;;;;;;;;;;5053035;28;20205;-79
2020/12/06 07:07:17;;;;;;;1.73;1.30;;;;;;;;;;5057203;28;20202;-79
2020/12/06 07:09:44;;;;;;;1.73;1.50;;;;;;;;;;5071404;28;20747;-79
2020/12/06 07:12:12;;;;;;;2.10;1.50;;;;;;;;;;5072189;28;20265;-79
2020/12/06 07:14:42;;;;;;;2.63;1.50;;;;;;;;;;5057498;28;20571;-79
2020/12/06 07:17:09;;;;;;;2.30;1.50;;;;;;;;;;5052469;28;20254;-79
2020/12/06 07:19:36;;;;;;;1.87;1.40;;;;;;;;;;5052782;28;20199;-78
2020/12/06 07:22:04;;;;;;;2.77;1.57;;;;;;;;;;5052215;28;20195;-79
2020/12/06 07:24:31;;;;;;;2.30;1.53;;;;;;;;;;5052664;28;20667;-79
2020/12/06 07:27:00;;;;;;;1.77;1.30;;;;;;;;;;5069775;28;20290;-78
2020/12/06 07:29:28;;;;;;;2.70;1.47;;;;;;;;;;5072134;28;20202;-78
2020/12/06 07:31:56;;;;;;;2.23;1.60;;;;;;;;;;5072412;28;20215;-79
2020/12/06 07:34:24;;;;;;;4.83;1.60;;;;;;;;;;5071602;28;20276;-78
2020/12/06 07:36:52;;;;;;;2.23;1.67;;;;;;;;;;5065915;28;20613;-78
2020/12/06 07:39:20;;;;;;;4.63;1.80;;;;;;;;;;5055064;28;20257;-78
2020/12/06 07:41:48;;;;;;;2.60;1.80;;;;;;;;;;5058447;28;20211;-80
2020/12/06 07:44:15;;;;;;;1.80;1.60;;;;;;;;;;5070216;28;20224;-79
2020/12/06 07:46:44;;;;;;;2.43;1.50;;;;;;;;;;5072266;28;20251;-79
2020/12/06 07:49:12;;;;;;;2.63;1.60;;;;;;;;;;5072068;28;20191;-79
2020/12/06 07:51:39;;;;;;;3.27;1.50;;;;;;;;;;5072358;28;20214;-79
2020/12/06 07:54:07;;;;;;;2.40;1.50;;;;;;;;;;5072373;28;20612;-80
2020/12/06 07:56:36;;;;;;;2.47;1.30;;;;;;;;;;5071558;28;20219;-79
2020/12/06 07:59:25;;;;;;;1.70;1.20;;;;;;;;;;5072514;28;20195;-80
2020/12/06 08:01:55;;;;;;;2.70;1.30;;;;;;;;;;5067524;28;20195;-80
2020/12/06 08:04:27;;;;;;;2.40;1.30;;;;;;;;;;5075855;28;20244;-81
2020/12/06 08:06:55;;;;;;;1.43;1.23;;;;;;;;;;5075891;28;20229;-80
2020/12/06 08:09:24;;;;;;;2.07;1.40;;;;;;;;;;5076188;28;20248;-79
2020/12/06 08:11:52;;;;;;;1.50;1.40;;;;;;;;;;5076353;28;20203;-79
2020/12/06 08:14:21;;;;;;;2.63;1.70;;;;;;;;;;5075379;28;20203;-79
2020/12/06 08:17:06;;;;;;;2.03;1.43;;;;;;;;;;5075873;28;20206;-79
2020/12/06 08:19:37;;;;;;;1.53;1.40;;;;;;;;;;5075686;28;20240;-79
2020/12/06 08:22:06;;;;;;;2.07;1.67;;;;;;;;;;5076116;28;20203;-79
2020/12/06 08:24:34;;;;;;;2.50;1.40;;;;;;;;;;5057874;28;20199;-79
2020/12/06 08:27:02;;;;;;;1.50;1.30;;;;;;;;;;5073726;28;20243;-79
2020/12/06 08:29:43;;;;;;;1.80;1.40;;;;;;;;;;5075339;28;20256;-79
2020/12/06 08:32:11;;;;;;;1.67;1.20;;;;;;;;;;5075753;28;20232;-80
2020/12/06 08:34:40;;;;;;;2.40;1.50;;;;;;;;;;5074753;28;20248;-80
2020/12/06 08:37:14;;;;;;;1.60;1.50;;;;;;;;;;5074837;28;20199;-79
2020/12/06 08:39:42;;;;;;;3.13;2.00;;;;;;;;;;5055810;28;20249;-79
2020/12/06 08:42:17;;;;;;;2.27;1.80;;;;;;;;;;5070563;28;20608;-79
2020/12/06 08:44:54;;;;;;;2.93;1.70;;;;;;;;;;5075537;28;20281;-78
2020/12/06 08:47:22;;;;;;;2.07;1.70;;;;;;;;;;5074971;28;20224;-77
2020/12/06 08:50:02;;;;;;;1.90;1.50;;;;;;;;;;5068274;28;20203;-79
2020/12/06 08:52:30;;;;;;;2.13;1.57;;;;;;;;;;5074842;28;20680;-79
2020/12/06 08:54:58;;;;;;;3.30;1.60;;;;;;;;;;5062838;28;20250;-79
2020/12/06 08:57:27;;;;;;;1.87;1.40;;;;;;;;;;5055056;28;20203;-79
2020/12/06 08:59:55;;;;;;;2.57;1.40;;;;;;;;;;5056635;28;20767;-78
2020/12/06 09:02:23;;;;;;;1.90;1.67;;;;;;;;;;5073653;28;20230;-78
2020/12/06 09:04:52;;;;;;;1.70;1.60;;;;;;;;;;5074445;28;20241;-78
2020/12/06 09:07:20;;;;;;;2.17;1.70;;;;;;;;;;5075184;28;20199;-78
2020/12/06 09:09:47;;;;;;;2.23;1.70;;;;;;;;;;5073767;28;20199;-78
2020/12/06 09:12:15;;;;;;;1.93;1.70;;;;;;;;;;5074212;28;20689;-79
2020/12/06 09:14:44;;;;;;;2.60;1.90;;;;;;;;;;5072908;28;20207;-78
2020/12/06 09:17:11;;;;;;;1.97;1.73;;;;;;;;;;5066321;28;20216;-78
2020/12/06 09:19:39;;;;;;;2.30;2.00;;;;;;;;;;5071797;28;20253;-78
2020/12/06 09:22:08;;;;;;;4.40;2.27;;;;;;;;;;5064894;28;20195;-78
2020/12/06 09:24:36;;;;;;;3.07;2.47;;;;;;;;;;5072572;28;20654;-78
2020/12/06 09:27:04;;;;;;;2.67;2.47;;;;;;;;;;5066896;28;20353;-78
2020/12/06 09:29:31;;;;;;;3.77;2.50;;;;;;;;;;5073236;28;20203;-78
2020/12/06 09:32:00;;;;;;;3.20;2.47;;;;;;;;;;5073070;28;20266;-78
2020/12/06 09:34:28;;;;;;;3.00;2.47;;;;;;;;;;5074027;28;20264;-78
2020/12/06 09:36:56;;;;;;;3.10;2.77;;;;;;;;;;5073490;28;20268;-78
2020/12/06 09:39:25;;;;;;;2.70;2.40;;;;;;;;;;5062433;28;20590;-78
2020/12/06 09:41:54;;;;;;;3.27;2.87;;;;;;;;;;5061241;28;20192;-78
2020/12/06 09:44:22;;;;;;;4.13;3.00;;;;;;;;;;5064443;28;20283;-78
2020/12/06 09:46:51;;;;;;;3.40;3.10;;;;;;;;;;5065622;28;20251;-77
2020/12/06 09:49:19;;;;;;;4.10;3.60;;;;;;;;;;5069725;28;20199;-77
2020/12/06 09:51:48;;;;;;;4.77;3.30;;;;;;;;;;5065228;28;20566;-78
2020/12/06 09:54:16;;;;;;;3.90;3.33;;;;;;;;;;5067041;28;20281;-78
2020/12/06 09:56:45;;;;;;;4.87;3.50;;;;;;;;;;5070188;28;20223;-78
2020/12/06 09:59:14;;;;;;;3.70;3.30;;;;;;;;;;5066500;28;20206;-78
2020/12/06 10:01:42;;;;;;;5.43;3.57;;;;;;;;;;5060010;28;20193;-78
2020/12/06 10:04:11;;;;;;;4.83;3.13;;;;;;;;;;5071454;28;20203;-78
2020/12/06 10:06:39;;;;;;;4.00;3.40;;;;;;;;;;5063811;28;20718;-78
2020/12/06 10:09:07;;;;;;;4.10;3.60;;;;;;;;;;5072262;28;20194;-79
2020/12/06 10:11:36;;;;;;;4.43;3.63;;;;;;;;;;5068753;28;20682;-78
2020/12/06 10:14:19;;;;;;;4.10;3.50;;;;;;;;;;5055223;28;20205;-81
2020/12/06 10:16:49;;;;;;;4.50;4.10;;;;;;;;;;5070536;28;20450;-81
2020/12/06 10:19:18;;;;;;;3.60;3.30;;;;;;;;;;5067873;28;20262;-81
2020/12/06 10:21:48;;;;;;;4.37;3.30;;;;;;;;;;5072254;28;20738;-82
2020/12/06 10:24:17;;;;;;;4.80;3.43;;;;;;;;;;5069017;28;20202;-81
2020/12/06 10:26:46;;;;;;;5.53;4.10;;;;;;;;;;5069683;28;20269;-82
2020/12/06 10:29:14;;;;;;;4.17;3.43;;;;;;;;;;5067528;28;20207;-81
2020/12/06 10:31:43;;;;;;;3.50;3.20;;;;;;;;;;5069852;28;20669;-81
2020/12/06 10:34:13;;;;;;;5.27;3.80;;;;;;;;;;5072007;28;20210;-80
2020/12/06 10:36:42;;;;;;;3.93;3.40;;;;;;;;;;5061018;28;20283;-80
2020/12/06 10:39:10;;;;;;;4.77;3.47;;;;;;;;;;5068195;28;20200;-79
2020/12/06 10:41:39;;;;;;;5.43;3.93;;;;;;;;;;5072089;28;20207;-80
2020/12/06 10:44:08;;;;;;;4.00;3.57;;;;;;;;;;5065565;28;20210;-80
2020/12/06 10:46:37;;;;;;;3.90;3.40;;;;;;;;;;5070969;28;20252;-79
2020/12/06 10:49:06;;;;;;;5.73;3.70;;;;;;;;;;5068846;28;20247;-79
2020/12/06 10:51:35;;;;;;;7.20;4.40;;;;;;;;;;5072542;28;20204;-80
2020/12/06 10:54:05;;;;;;;7.50;5.17;;;;;;;;;;5063002;28;20264;-80
2020/12/06 10:56:33;;;;;;;4.53;4.13;;;;;;;;;;5070223;28;20225;-79
2020/12/06 10:59:02;;;;;;;5.87;3.90;;;;;;;;;;5060073;28;20202;-80
2020/12/06 11:01:32;;;;;;;6.00;4.10;;;;;;;;;;5069757;28;20254;-78
2020/12/06 11:04:01;;;;;;;5.37;4.03;;;;;;;;;;5071389;28;20247;-78
2020/12/06 11:06:30;;;;;;;4.27;3.87;;;;;;;;;;5071917;28;20198;-78
2020/12/06 11:09:00;;;;;;;4.53;4.10;;;;;;;;;;5071095;28;20256;-78
2020/12/06 11:11:29;;;;;;;6.20;4.37;;;;;;;;;;5070794;28;20206;-77
2020/12/06 11:13:58;;;;;;;5.60;4.27;;;;;;;;;;5066653;28;20268;-78
2020/12/06 11:16:27;;;;;;;5.80;4.33;;;;;;;;;;5069737;28;20195;-76
2020/12/06 11:18:55;;;;;;;5.37;3.87;;;;;;;;;;5067575;28;20199;-77
2020/12/06 11:21:24;;;;;;;5.77;4.07;;;;;;;;;;5067185;28;20198;-77
2020/12/06 11:23:55;;;;;;;4.57;3.80;;;;;;;;;;5065937;28;20650;-76
2020/12/06 11:26:25;;;;;;;6.23;4.27;;;;;;;;;;5068257;28;20222;-78
2020/12/06 11:28:54;;;;;;;5.50;4.70;;;;;;;;;;5066679;28;20223;-78
2020/12/06 11:31:23;;;;;;;5.97;4.77;;;;;;;;;;5065498;28;20737;-78
2020/12/06 11:33:52;;;;;;;7.90;6.30;;;;;;;;;;5075091;28;20258;-78
2020/12/06 11:36:21;;;;;;;7.50;6.20;;;;;;;;;;5066128;28;20571;-78
2020/12/06 11:38:50;;;;;;;5.53;4.80;;;;;;;;;;5070160;28;20279;-78
2020/12/06 11:41:19;;;;;;;6.73;4.80;;;;;;;;;;5061574;28;20281;-78
2020/12/06 11:43:49;;;;;;;6.83;5.50;;;;;;;;;;5069193;28;20199;-78
2020/12/06 11:46:19;;;;;;;6.57;5.00;;;;;;;;;;5070755;28;20256;-78
2020/12/06 11:48:48;;;;;;;5.60;4.50;;;;;;;;;;5068258;28;20200;-78
2020/12/06 11:51:17;;;;;;;5.80;4.27;;;;;;;;;;5071349;28;20195;-78
2020/12/06 11:53:46;;;;;;;5.13;4.37;;;;;;;;;;5069937;28;20244;-78
2020/12/06 11:56:15;;;;;;;5.97;4.10;;;;;;;;;;5065765;28;20202;-78
2020/12/06 11:58:45;;;;;;;5.70;4.73;;;;;;;;;;5066492;28;20215;-78
2020/12/06 12:01:15;;;;;;;8.87;6.93;;;;;;;;;;5072554;28;20285;-79
2020/12/06 12:03:44;;;;;;;7.40;4.23;;;;;;;;;;5068127;28;20659;-79
2020/12/06 12:06:13;;;;;;;5.30;4.40;;;;;;;;;;5071947;28;20264;-79
2020/12/06 12:08:42;;;;;;;4.57;4.17;;;;;;;;;;5067613;28;20253;-79
2020/12/06 12:11:11;;;;;;;6.07;3.87;;;;;;;;;;5059223;28;20198;-79
2020/12/06 12:13:40;;;;;;;6.17;4.30;;;;;;;;;;5054108;28;20196;-79
2020/12/06 12:16:09;;;;;;;4.43;3.70;;;;;;;;;;5071416;28;20203;-78
2020/12/06 12:18:39;;;;;;;5.60;3.97;;;;;;;;;;5071973;28;20223;-78
2020/12/06 12:21:08;;;;;;;7.23;6.17;;;;;;;;;;5060659;28;20205;-78
2020/12/06 12:23:37;;;;;;;16.20;14.70;;;;;;;;;;5064423;28;20252;-78
2020/12/06 12:26:05;;;;;;;11.47;10.33;;;;;;;;;;5069665;28;20271;-78
2020/12/06 12:28:35;;;;;;;12.50;10.63;;;;;;;;;;5070881;28;20577;-78
2020/12/06 12:31:04;;;;;;;13.63;12.33;;;;;;;;;;5071060;28;20239;-78
2020/12/06 12:33:32;;;;;;;14.13;12.73;;;;;;;;;;5061900;28;20220;-78
2020/12/06 12:36:02;;;;;;;6.50;4.73;;;;;;;;;;5071146;28;20203;-78
2020/12/06 12:38:43;;;;;;;6.03;4.03;;;;;;;;;;5064994;28;20714;-78
2020/12/06 12:41:12;;;;;;;13.60;12.40;;;;;;;;;;5065654;28;20195;-78
2020/12/06 12:43:41;;;;;;;7.10;5.70;;;;;;;;;;5068725;28;20613;-78
2020/12/06 12:46:10;;;;;;;6.03;5.17;;;;;;;;;;5061632;28;20260;-78
2020/12/06 12:48:40;;;;;;;9.57;7.00;;;;;;;;;;5071541;28;20241;-78
2020/12/06 12:51:10;;;;;;;10.27;9.37;;;;;;;;;;5073038;28;20282;-78
2020/12/06 12:53:38;;;;;;;6.23;4.23;;;;;;;;;;5071266;28;20242;-78
2020/12/06 12:56:07;;;;;;;4.00;3.60;;;;;;;;;;5070313;28;20202;-80
2020/12/06 12:58:36;;;;;;;6.37;4.20;;;;;;;;;;5073447;28;20222;-78
2020/12/06 13:01:05;;;;;;;4.10;3.60;;;;;;;;;;5071615;28;20199;-78
2020/12/06 13:03:34;;;;;;;6.27;3.60;;;;;;;;;;5072560;28;20249;-78
2020/12/06 13:06:02;;;;;;;6.30;4.73;;;;;;;;;;5074911;28;20256;-78
2020/12/06 13:08:32;;;;;;;3.50;3.20;;;;;;;;;;5074721;28;20261;-78
2020/12/06 13:10:59;;;;;;;4.83;3.93;;;;;;;;;;5074315;28;20588;-78
2020/12/06 13:13:28;;;;;;;4.53;3.70;;;;;;;;;;5065155;28;20250;-78
2020/12/06 13:15:55;;;;;;;5.23;4.50;;;;;;;;;;5063573;28;20207;-78
2020/12/06 13:18:24;;;;;;;4.47;3.30;;;;;;;;;;5062300;28;20269;-79
2020/12/06 13:20:50;;;;;;;5.10;4.00;;;;;;;;;;5062514;28;20257;-78
2020/12/06 13:23:19;;;;;;;6.47;5.77;;;;;;;;;;5073035;28;20207;-77
2020/12/06 13:25:47;;;;;;;7.87;6.07;;;;;;;;;;5061158;28;20203;-79
2020/12/06 13:28:16;;;;;;;4.40;3.57;;;;;;;;;;5066621;28;20654;-80
2020/12/06 13:30:43;;;;;;;7.63;4.60;;;;;;;;;;5072379;28;20199;-80
2020/12/06 13:33:11;;;;;;;5.13;3.43;;;;;;;;;;5072620;28;20692;-80
2020/12/06 13:35:38;;;;;;;4.60;3.67;;;;;;;;;;5066721;28;20268;-80
2020/12/06 13:38:07;;;;;;;5.63;3.73;;;;;;;;;;5072273;28;20195;-79
2020/12/06 13:40:34;;;;;;;6.47;3.60;;;;;;;;;;5056852;28;20200;-79
2020/12/06 13:43:03;;;;;;;5.30;3.70;;;;;;;;;;5072472;28;20208;-79
2020/12/06 13:45:30;;;;;;;4.80;3.17;;;;;;;;;;5067076;28;20672;-79
2020/12/06 13:47:59;;;;;;;4.30;3.00;;;;;;;;;;5063490;28;20253;-79
2020/12/06 13:50:26;;;;;;;5.47;3.10;;;;;;;;;;5072753;28;20191;-78
2020/12/06 13:52:56;;;;;;;4.97;3.23;;;;;;;;;;5072891;28;20203;-78
2020/12/06 13:55:25;;;;;;;4.33;3.20;;;;;;;;;;5070806;28;20250;-79
2020/12/06 13:57:52;;;;;;;4.97;3.27;;;;;;;;;;5071308;28;20789;-79
2020/12/06 14:00:22;;;;;;;3.40;3.10;;;;;;;;;;5063006;28;20630;-79
2020/12/06 14:02:54;;;;;;;4.00;3.37;;;;;;;;;;5063434;28;20200;-79
2020/12/06 14:05:21;;;;;;;5.83;3.80;;;;;;;;;;5071326;28;20203;-79
2020/12/06 14:07:50;;;;;;;6.10;4.80;;;;;;;;;;5059228;28;20195;-78
2020/12/06 14:10:17;;;;;;;5.67;3.80;;;;;;;;;;5072779;28;20195;-79
2020/12/06 14:12:47;;;;;;;5.83;4.03;;;;;;;;;;5063139;28;20571;-79
2020/12/06 14:15:16;;;;;;;10.63;6.37;;;;;;;;;;5064869;28;20249;-78
2020/12/06 14:17:43;;;;;;;7.10;4.37;;;;;;;;;;5062821;28;20675;-79
2020/12/06 14:20:10;;;;;;;5.13;3.80;;;;;;;;;;5062844;28;20219;-80
2020/12/06 14:22:39;;;;;;;3.83;3.03;;;;;;;;;;5068394;28;20245;-80
2020/12/06 14:25:05;;;;;;;4.13;3.73;;;;;;;;;;5068979;28;20616;-79
2020/12/06 14:27:34;;;;;;;8.47;6.83;;;;;;;;;;5063073;28;20234;-79
2020/12/06 14:30:01;;;;;;;5.77;4.97;;;;;;;;;;5071520;28;20274;-80
2020/12/06 14:32:31;;;;;;;3.43;2.83;;;;;;;;;;5066738;28;20200;-80
2020/12/06 14:35:01;;;;;;;6.93;6.27;;;;;;;;;;5071095;28;20203;-79
2020/12/06 14:37:29;;;;;;;30.40;27.13;;;;;;;;;;5070922;28;20613;-79
2020/12/06 14:39:56;;;;;;;17.00;14.03;;;;;;;;;;5070644;28;20698;-79